Main page
METAR-TAF:

METAR-TAF

Airports :

Ventspils International Airport

Ventspils, Latvia

latitude: 57-21-28N, longitude: 021-32-39E, elevation: 6 m

Current weather observation

The report was made 29 minutes ago, at 19:50 UTC
Calm wind
Temperature 3°C
Humidity 100%
Pressure 1023 hPa
Visibility: 0800 m
Scattered clouds at a height of 3900 ft
fog

METAR: EVVA 201950Z AUTO 00000KT 0800 FG SCT039 03/03 Q1023

Time: 23:19 (20:19 UTC)


TAF: missing

Weather observations and forecasts of more than 4000 airports (METAR and TAF reports).

The available stations are represented by yellow and red dots on the map.

Hover mouse over dot to see the name of the station.

Then click to see weather observations and forecasts.

To change the map : click on the green buttons with a black cross to zoom in, on the green button with a dash to zoom out, or on the green arrows for adjacent maps.


METAR-TAF: